KPSF

Pittsfield Municipal Airport

Pittsfield, Massachusetts, USA
METAR KPSF 200054Z AUTO 00000KT 10SM CLR M06/M09 A2987 RMK AO2 SLP138 T10561094
Observed Flight Rules
Jan-20 @ 00:54 UTC (31 minutes ago) Visual Flight Rules
Wind Visibility Clouds
Calm 10 miles
  • Clear skies
Temperatures Readings
Current -6°C / 21°F
Dewpoint -9°C / 16°F
Humidity 80%
Altimeter 29.87" Hg
Pressure 1013.8 hPa
Elevation 355
METAR KPSF 200054Z AUTO 00000KT 10SM CLR M06/M09 A2987 RMK AO2 SLP138 T10561094
Observed Flight Rules
Jan-20 @ 00:54 UTC
(31 minutes ago)
VFR
Wind Visibility
Calm 10 miles
Clouds
  • Clear skies
Temperature Dewpoint
-6°C / 21°F -9°C / 16°F
Humidity Altimeter Pressure
80% 29.87" Hg 1013.8 hPa